West Palm Beach, FL (33406)

10:48 AM EST on January 26, 2015 (GMT -0500)
LCS Police HQ / EOC | Change Station
CLOSE
Current Station
Personal Weather Station
Location: Lake Clarke Shores, FL
Elevation: 30 ft
Nearby Weather Stations

Elev 30 ft 26.65 °N, 80.08 °W | Updated 2 seconds ago

Light Rain
Light Rain
2.5 °F
Feels Like -7 °F
N
4.6
Wind Variable Wind from WNW
Gusts 6.8 mph

Today
High -- | Low -- °F
--% Chance of Precip.
Yesterday
High -- | Low -- °F
Precip. -- in
7:08 AM 5:58 PM
Waxing Crescent, 44% visible
Pressure 29.94 in
Visibility 10.0 miles
Clouds Few 1800 ft
Scattered Clouds 3700 ft
Overcast 6000 ft
Windchill -7 °F
Dew Point 1.2 °F
Humidity 94%
Rainfall 0.10 in
Snow Depth Not available.
UV 2 out of 12
Pollen 7.10 out of 12
Air Quality Not available.
Flu Activity Not available.
SPECI KPBI 261542Z 24008KT 10SM -RA FEW018 SCT037 OVC060 17/15 A2994 RMK AO2 WSHFT 1440 P0003 T01720150

More Conditions Fewer Conditions

Pressure 29.94 in
Visibility 10.0 miles
Clouds Few 1800 ft
Scattered Clouds 3700 ft
Overcast 6000 ft
Windchill -7 °F
Dew Point 1.2 °F
Humidity 94%
Rainfall 0.10 in
Snow Depth Not available.
UV 2 out of 12
Pollen 7.10 out of 12
Air Quality Not available.
Flu Activity Not available.
SPECI KPBI 261542Z 24008KT 10SM -RA FEW018 SCT037 OVC060 17/15 A2994 RMK AO2 WSHFT 1440 P0003 T01720150

More Conditions Fewer Conditions

Nowcast | as of 10:12 am EST on January 26, 2015

Showers were moving quickly eastward into the East Coast Metro areas this morning. Gusty winds up to 35 mph and brief heavy downpours will accompany these showers. Rainfall will end around noon...with breezy to windy conditions continuing through the afternoon.

×

10-Day Weather Forecast

Almanac

Astronomy

Jan. 26, 2015 Rise Set
Actual Time
Civil Twilight
Nautical Twilight
Astronomical Twilight
Moon
Length of Visible Light
Length of Day
Tomorrow will be .
, % of the Moon is Illuminated

Today's Extremes

State Highs State Lows

Community

WunderPhotos

Upload Photos

1,790,249 photos uploaded!

WunderBlogs® & News

Nearby

Air Quality

  Air Quality AQ Index Pollutant
Not available.

Snow Depth

Station Depth Elevation

Earthquake Activity

City Distance Mag. Time & Date
Minimum magnitude displayed is 2.5.

Coastal Water Temperatures

Place Temperature

Nearby Weather Stations